Time;durP1;ratioP1;P1;durP2;ratioP2;P2;SDS_P1;SDS_P2;PMS_P1;PMS_P2;Temp;Humidity;BMP_temperature;BMP_pressure;BME280_temperature;BME280_humidity;BME280_pressure;Samples;Min_cycle;Max_cycle;Signal;HPM_P1;HPM_P2
2022/06/01 00:00:30;;;;;;;9.25;6.47;;;;;;;14.05;100.00;100180.94;4486020;31;20085;-63
2022/06/01 00:02:58;;;;;;;7.47;6.47;;;;;;;13.98;100.00;100176.75;4486288;31;20118;-63
2022/06/01 00:05:26;;;;;;;9.77;7.12;;;;;;;13.97;100.00;100166.19;4485987;31;20115;-63
2022/06/01 00:07:53;;;;;;;8.15;6.00;;;;;;;13.98;100.00;100167.94;4485957;31;20122;-63
2022/06/01 00:10:21;;;;;;;10.15;6.28;;;;;;;14.01;100.00;100159.91;4485750;31;20152;-63
2022/06/01 00:12:48;;;;;;;7.82;5.93;;;;;;;14.00;100.00;100166.13;4485745;31;20100;-63
2022/06/01 00:15:17;;;;;;;14.30;6.60;;;;;;;14.00;100.00;100160.81;4485942;31;20091;-63
2022/06/01 00:17:44;;;;;;;12.98;6.40;;;;;;;13.93;100.00;100161.91;4486061;31;20108;-63
2022/06/01 00:20:13;;;;;;;7.05;6.35;;;;;;;13.86;100.00;100156.78;4486067;31;20096;-63
2022/06/01 00:22:44;;;;;;;7.97;6.35;;;;;;;13.88;100.00;100157.59;4484387;31;20130;-63
2022/06/01 00:25:13;;;;;;;8.50;7.40;;;;;;;13.91;100.00;100151.34;4485848;31;20490;-63
2022/06/01 00:27:40;;;;;;;9.20;6.53;;;;;;;13.86;100.00;100151.47;4486006;31;20122;-63
2022/06/01 00:30:10;;;;;;;12.05;7.12;;;;;;;13.90;100.00;100149.63;4485824;31;20512;-63
2022/06/01 00:32:38;;;;;;;11.75;8.18;;;;;;;13.84;100.00;100140.06;4485813;31;20097;-63
2022/06/01 00:35:06;;;;;;;10.05;7.32;;;;;;;13.78;100.00;100147.31;4485632;31;20075;-63
2022/06/01 00:37:34;;;;;;;10.80;7.80;;;;;;;13.83;100.00;100146.28;4485755;31;20126;-63
2022/06/01 00:40:04;;;;;;;9.63;7.80;;;;;;;13.88;100.00;100148.78;4470845;31;20142;-62
2022/06/01 00:42:33;;;;;;;8.20;7.40;;;;;;;13.82;100.00;100147.19;4485669;31;20619;-63
2022/06/01 00:45:02;;;;;;;10.20;8.18;;;;;;;13.88;100.00;100147.00;4485718;31;20162;-63
2022/06/01 00:47:29;;;;;;;9.90;6.95;;;;;;;13.83;100.00;100143.62;4485652;31;20084;-63
2022/06/01 00:50:08;;;;;;;12.27;7.80;;;;;;;13.84;100.00;100144.47;4485617;31;20110;-63
2022/06/01 00:52:40;;;;;;;11.52;7.75;;;;;;;13.83;100.00;100133.03;4485661;31;20163;-63
2022/06/01 00:55:12;;;;;;;9.50;7.78;;;;;;;13.85;100.00;100138.28;4485756;31;20072;-63
2022/06/01 00:57:41;;;;;;;8.18;6.75;;;;;;;13.91;100.00;100139.88;4485566;31;20383;-63
2022/06/01 01:00:20;;;;;;;14.20;7.50;;;;;;;13.90;100.00;100143.44;4485593;31;20463;-63
2022/06/01 01:02:49;;;;;;;8.70;7.40;;;;;;;13.87;100.00;100139.97;4485774;31;20737;-63
2022/06/01 01:05:17;;;;;;;9.85;7.20;;;;;;;13.90;100.00;100141.66;4485614;31;20481;-63
2022/06/01 01:07:45;;;;;;;9.48;7.00;;;;;;;13.88;100.00;100140.84;4485625;31;20110;-63
2022/06/01 01:10:14;;;;;;;9.65;7.37;;;;;;;13.82;100.00;100138.38;4485755;31;20123;-63
2022/06/01 01:13:04;;;;;;;9.80;8.05;;;;;;;13.75;100.00;100150.94;4485335;31;20131;-63
2022/06/01 01:15:37;;;;;;;9.50;7.85;;;;;;;13.67;100.00;100141.44;4485594;31;20166;-63
2022/06/01 01:18:08;;;;;;;9.52;7.95;;;;;;;13.66;100.00;100153.81;4485650;31;20152;-63
2022/06/01 01:20:47;;;;;;;9.70;8.13;;;;;;;13.63;100.00;100157.41;4485560;31;20077;-63
2022/06/01 01:23:25;;;;;;;15.70;8.15;;;;;;;13.63;100.00;100153.91;4485168;31;20138;-63
2022/06/01 01:25:53;;;;;;;10.40;7.28;;;;;;;13.55;100.00;100142.69;4485316;31;20677;-63
2022/06/01 01:28:20;;;;;;;11.02;7.90;;;;;;;13.50;100.00;100148.09;4485263;31;20100;-63
2022/06/01 01:30:52;;;;;;;8.77;6.80;;;;;;;13.45;100.00;100151.78;4485202;31;20100;-63
2022/06/01 01:33:27;;;;;;;9.52;7.55;;;;;;;13.38;100.00;100151.94;4484595;31;20139;-62
2022/06/01 01:36:08;;;;;;;10.18;7.65;;;;;;;13.35;100.00;100146.72;4485385;31;20097;-63
2022/06/01 01:38:57;;;;;;;10.50;7.55;;;;;;;13.33;100.00;100148.56;4485004;31;20080;-63
2022/06/01 01:41:32;;;;;;;12.37;8.80;;;;;;;13.34;100.00;100145.00;4485019;31;20634;-63
2022/06/01 01:44:11;;;;;;;13.02;8.77;;;;;;;13.32;100.00;100146.84;4485130;31;20116;-63
2022/06/01 01:46:39;;;;;;;12.65;8.50;;;;;;;13.31;100.00;100145.06;4485120;31;20080;-63
2022/06/01 01:49:08;;;;;;;11.32;8.00;;;;;;;13.31;100.00;100147.72;4484889;31;20107;-63
2022/06/01 01:51:35;;;;;;;17.67;7.82;;;;;;;13.41;100.00;100150.13;4484977;31;20104;-63
2022/06/01 01:54:17;;;;;;;12.43;7.53;;;;;;;13.39;100.00;100140.47;4484871;31;20108;-63
2022/06/01 01:57:27;;;;;;;9.80;7.97;;;;;;;13.37;100.00;100139.63;4485055;31;20151;-62
2022/06/01 02:00:04;;;;;;;9.38;8.07;;;;;;;13.45;100.00;100141.19;4484830;31;20126;-63
2022/06/01 02:03:06;;;;;;;8.13;6.90;;;;;;;13.60;100.00;100140.75;4484734;31;20542;-63
2022/06/01 02:08:41;;;;;;;9.88;7.53;;;;;;;13.63;100.00;100135.37;4484916;31;20092;-63
2022/06/01 02:14:12;;;;;;;8.20;6.47;;;;;;;13.51;100.00;100143.69;4484727;31;20553;-63
2022/06/01 02:16:44;;;;;;;7.35;6.65;;;;;;;13.52;100.00;100140.97;4484570;31;20949;-63
2022/06/01 02:19:20;;;;;;;10.32;7.53;;;;;;;13.54;100.00;100136.53;4484336;31;20429;-63
2022/06/01 02:21:47;;;;;;;8.68;7.15;;;;;;;13.50;100.00;100133.97;4484389;31;20109;-63
2022/06/01 02:24:14;;;;;;;8.75;7.15;;;;;;;13.48;100.00;100141.13;4484439;31;20116;-63
2022/06/01 02:26:43;;;;;;;9.48;7.03;;;;;;;13.50;100.00;100137.53;4484539;31;20591;-63
2022/06/01 02:29:17;;;;;;;11.52;7.95;;;;;;;13.64;100.00;100142.44;4484294;31;20494;-63
2022/06/01 02:31:45;;;;;;;12.02;7.87;;;;;;;13.64;100.00;100137.12;4484255;31;20119;-63
2022/06/01 02:34:13;;;;;;;11.18;7.40;;;;;;;13.74;100.00;100146.53;4484355;31;20084;-63
2022/06/01 02:36:43;;;;;;;14.05;7.40;;;;;;;13.78;100.00;100145.56;4484263;31;20502;-63
2022/06/01 02:39:14;;;;;;;9.63;7.65;;;;;;;13.82;100.00;100149.84;4484145;31;20487;-63
2022/06/01 02:44:27;;;;;;;7.72;6.45;;;;;;;13.96;100.00;100141.50;4484339;31;20483;-63
2022/06/01 02:46:55;;;;;;;10.43;6.78;;;;;;;14.10;100.00;100147.25;4486440;31;20154;-63
2022/06/01 02:49:22;;;;;;;12.68;7.07;;;;;;;14.17;100.00;100150.59;4471810;31;20532;-63
2022/06/01 02:51:49;;;;;;;10.13;6.50;;;;;;;14.24;100.00;100141.53;4486638;31;20095;-63
2022/06/01 02:54:16;;;;;;;11.43;6.72;;;;;;;14.21;100.00;100138.97;4486423;31;20431;-63
2022/06/01 02:56:44;;;;;;;9.70;6.43;;;;;;;14.19;100.00;100145.22;4486370;31;20448;-63
2022/06/01 02:59:11;;;;;;;8.90;7.03;;;;;;;14.24;100.00;100138.87;4486448;31;20114;-63
2022/06/01 03:01:38;;;;;;;11.15;7.78;;;;;;;14.29;100.00;100141.38;4486583;31;20536;-63
2022/06/01 03:04:06;;;;;;;8.98;6.55;;;;;;;14.30;100.00;100143.97;4486368;31;20472;-63
2022/06/01 03:06:33;;;;;;;10.02;6.85;;;;;;;14.37;100.00;100138.50;4486328;31;20100;-63
2022/06/01 03:09:20;;;;;;;11.52;6.43;;;;;;;14.38;100.00;100129.59;4486306;31;20788;-63
2022/06/01 03:11:48;;;;;;;9.82;6.30;;;;;;;14.40;100.00;100133.97;4486490;31;20142;-63
2022/06/01 03:14:15;;;;;;;11.07;7.40;;;;;;;14.45;100.00;100133.78;4486360;31;20096;-63
2022/06/01 03:16:42;;;;;;;12.45;6.97;;;;;;;14.49;100.00;100132.81;4486300;31;20179;-63
2022/06/01 03:19:11;;;;;;;10.00;6.78;;;;;;;14.60;100.00;100129.84;4486217;31;20075;-63
2022/06/01 03:21:38;;;;;;;10.73;7.95;;;;;;;14.64;98.90;100131.47;4486124;31;20411;-63
2022/06/01 03:24:06;;;;;;;10.88;7.57;;;;;;;14.62;100.00;100128.84;4486381;31;20081;-63
2022/06/01 03:26:33;;;;;;;10.98;8.05;;;;;;;14.69;100.00;100137.47;4471343;31;20561;-63
2022/06/01 03:29:00;;;;;;;12.63;8.32;;;;;;;14.76;100.00;100137.22;4486496;31;20486;-63
2022/06/01 03:31:28;;;;;;;15.02;8.80;;;;;;;14.80;100.00;100128.25;4486204;31;20115;-63
2022/06/01 03:33:55;;;;;;;12.10;8.18;;;;;;;14.87;100.00;100128.06;4486047;31;20096;-63
2022/06/01 03:36:22;;;;;;;12.63;8.65;;;;;;;14.94;100.00;100134.88;4486170;31;20210;-63
2022/06/01 03:38:50;;;;;;;15.43;10.23;;;;;;;14.93;100.00;100144.63;4486245;31;20092;-63
2022/06/01 03:41:17;;;;;;;14.02;9.82;;;;;;;15.01;100.00;100150.53;4486064;31;20092;-63
2022/06/01 03:46:33;;;;;;;12.68;9.73;;;;;;;15.09;100.00;100181.25;4486163;31;20542;-63
2022/06/01 03:49:01;;;;;;;12.57;9.57;;;;;;;15.20;100.00;100193.25;4486302;31;20415;-63
2022/06/01 03:51:28;;;;;;;18.27;11.90;;;;;;;15.06;100.00;100206.13;4486078;31;20103;-63
2022/06/01 03:53:55;;;;;;;19.33;12.57;;;;;;;15.03;100.00;100212.41;4486050;31;20443;-63
2022/06/01 03:56:23;;;;;;;15.30;11.70;;;;;;;15.04;100.00;100221.22;4485586;31;20150;-63
2022/06/01 03:58:51;;;;;;;28.30;15.82;;;;;;;14.99;100.00;100210.75;4485923;31;21142;-63
2022/06/01 04:01:19;;;;;;;22.60;14.60;;;;;;;15.13;100.00;100220.06;4485875;31;20155;-63
2022/06/01 04:03:46;;;;;;;28.12;16.80;;;;;;;15.16;100.00;100219.94;4485850;31;20127;-63
2022/06/01 04:06:14;;;;;;;24.73;15.63;;;;;;;15.16;100.00;100210.22;4486081;31;20125;-63
2022/06/01 04:08:41;;;;;;;27.05;16.95;;;;;;;15.21;100.00;100202.94;4485699;31;20135;-63
2022/06/01 04:11:08;;;;;;;32.35;18.08;;;;;;;15.25;100.00;100193.97;4485869;31;20135;-63
2022/06/01 04:13:36;;;;;;;27.85;17.50;;;;;;;15.25;100.00;100183.34;4485957;31;20108;-63
2022/06/01 04:16:03;;;;;;;27.83;16.62;;;;;;;15.22;100.00;100187.88;4485873;31;20108;-63
2022/06/01 04:18:48;;;;;;;22.00;15.63;;;;;;;15.30;100.00;100185.84;4485744;31;20148;-63
2022/06/01 04:21:21;;;;;;;26.48;16.30;;;;;;;15.47;100.00;100193.22;4485939;31;20096;-63
2022/06/01 04:23:50;;;;;;;24.48;15.18;;;;;;;15.62;100.00;100205.06;4485671;31;20092;-63
2022/06/01 04:26:17;;;;;;;26.45;15.38;;;;;;;15.87;100.00;100203.34;4485813;31;20092;-63
2022/06/01 04:28:44;;;;;;;28.55;15.60;;;;;;;15.91;100.00;100199.63;4485847;31;20118;-63
2022/06/01 04:31:12;;;;;;;31.20;17.95;;;;;;;16.02;100.00;100213.37;4485956;31;20143;-64
2022/06/01 04:33:42;;;;;;;33.20;18.37;;;;;;;16.02;100.00;100221.34;4485632;31;20108;-63
2022/06/01 04:36:09;;;;;;;37.85;20.75;;;;;;;15.97;100.00;100222.44;4485780;31;20357;-63
2022/06/01 04:38:37;;;;;;;33.42;21.45;;;;;;;15.75;100.00;100220.56;4485393;31;20155;-63
2022/06/01 04:41:04;;;;;;;43.45;22.52;;;;;;;15.68;100.00;100213.72;4485626;31;20091;-63
2022/06/01 04:43:31;;;;;;;35.63;21.02;;;;;;;15.84;100.00;100218.50;4485816;31;20116;-63
2022/06/01 04:45:59;;;;;;;33.28;20.30;;;;;;;15.86;100.00;100206.87;4485634;31;20502;-63
2022/06/01 04:48:26;;;;;;;35.70;20.88;;;;;;;15.99;100.00;100202.00;4485543;31;20216;-63
2022/06/01 04:50:56;;;;;;;36.97;20.60;;;;;;;16.04;100.00;100210.66;4485706;31;20095;-63
2022/06/01 04:53:24;;;;;;;35.38;21.45;;;;;;;16.18;100.00;100219.00;4485607;31;20504;-63
2022/06/01 04:55:51;;;;;;;33.85;20.98;;;;;;;16.28;100.00;100214.19;4485556;31;20506;-63
2022/06/01 04:58:18;;;;;;;37.40;20.52;;;;;;;16.39;100.00;100213.78;4485495;31;20175;-64
2022/06/01 05:00:46;;;;;;;30.55;18.85;;;;;;;16.60;100.00;100215.59;4485584;31;20166;-64
2022/06/01 05:03:14;;;;;;;34.17;19.62;;;;;;;16.81;98.88;100197.09;4485397;31;20126;-64
2022/06/01 05:05:41;;;;;;;31.20;19.20;;;;;;;17.03;97.40;100194.41;4485350;31;20510;-64
2022/06/01 05:08:12;;;;;;;35.10;20.45;;;;;;;17.13;96.51;100206.41;4484128;31;20114;-63
2022/06/01 05:10:40;;;;;;;30.92;17.92;;;;;;;17.19;96.57;100211.47;4485114;31;20122;-64
2022/06/01 05:13:08;;;;;;;43.85;20.02;;;;;;;17.00;95.40;100206.06;4485171;31;20180;-64
2022/06/01 05:15:49;;;;;;;38.60;21.27;;;;;;;17.15;96.25;100197.44;4485257;31;20609;-64
2022/06/01 05:18:17;;;;;;;31.15;19.70;;;;;;;16.82;98.83;100206.78;4470619;31;20079;-63
2022/06/01 05:20:45;;;;;;;37.35;21.12;;;;;;;16.94;96.57;100214.28;4491881;31;20110;-63
2022/06/01 05:23:12;;;;;;;32.40;18.90;;;;;;;16.96;97.92;100210.66;4500675;31;20130;-64
2022/06/01 05:25:43;;;;;;;35.00;21.65;;;;;;;16.99;97.24;100211.44;4501446;31;20096;-64
2022/06/01 05:28:12;;;;;;;33.83;21.42;;;;;;;17.04;98.83;100220.97;4501330;31;20138;-63
2022/06/01 05:30:39;;;;;;;32.60;20.62;;;;;;;17.28;96.93;100223.53;4501066;31;20095;-63
2022/06/01 05:33:06;;;;;;;35.75;19.52;;;;;;;17.55;94.81;100222.34;4500581;31;20112;-64
2022/06/01 05:35:34;;;;;;;32.70;19.50;;;;;;;17.83;93.15;100230.03;4500903;31;20526;-64
2022/06/01 05:38:01;;;;;;;44.05;19.62;;;;;;;18.12;91.35;100239.41;4500810;31;20509;-64
2022/06/01 05:40:30;;;;;;;30.67;18.50;;;;;;;17.84;93.08;100234.44;4501201;31;20091;-64
2022/06/01 05:42:58;;;;;;;31.80;17.92;;;;;;;18.20;90.90;100246.19;4500652;31;20178;-64
2022/06/01 05:45:26;;;;;;;34.67;17.58;;;;;;;18.35;89.79;100237.50;4500804;31;20096;-64
2022/06/01 05:47:53;;;;;;;21.85;14.73;;;;;;;17.95;92.93;100243.75;4500178;31;20092;-64
2022/06/01 05:50:20;;;;;;;17.92;11.18;;;;;;;18.05;91.65;100245.94;4500313;31;20091;-64
2022/06/01 05:52:48;;;;;;;11.48;8.88;;;;;;;18.24;89.68;100253.13;4500494;31;20443;-64
2022/06/01 05:55:15;;;;;;;11.90;7.40;;;;;;;18.17;88.28;100257.03;4500445;31;20451;-63
2022/06/01 05:57:42;;;;;;;11.73;7.50;;;;;;;18.16;87.76;100258.78;4500525;31;20472;-64
2022/06/01 06:00:11;;;;;;;14.27;8.52;;;;;;;18.04;88.77;100257.56;4500297;31;20092;-63
2022/06/01 06:02:39;;;;;;;13.20;7.93;;;;;;;18.09;88.41;100260.91;4500366;31;20092;-63
2022/06/01 06:06:11;;;;;;;9.82;7.35;;;;;;;17.95;89.31;100262.41;4486066;31;20138;-63
2022/06/01 06:07:56;;;;;;;8.48;6.45;;;;;;;18.08;88.16;100263.63;4500364;31;20488;-63
2022/06/01 06:10:24;;;;;;;20.17;7.43;;;;;;;17.84;89.64;100260.22;4500543;31;20117;-63
2022/06/01 06:12:51;;;;;;;27.00;7.57;;;;;;;17.92;89.13;100261.66;4500499;31;20426;-64
2022/06/01 06:15:18;;;;;;;17.27;5.93;;;;;;;18.07;87.94;100256.56;4485815;31;20108;-63
2022/06/01 06:17:53;;;;;;;14.77;5.95;;;;;;;18.19;87.34;100265.78;4500944;31;20087;-63
2022/06/01 06:20:21;;;;;;;9.05;6.53;;;;;;;18.24;86.64;100274.47;4487356;31;20092;-63
2022/06/01 06:22:48;;;;;;;14.48;6.68;;;;;;;17.67;91.53;100275.13;4502284;31;20091;-63
2022/06/01 06:25:15;;;;;;;12.52;7.07;;;;;;;17.48;93.44;100268.84;4502457;31;20186;-63
2022/06/01 06:27:42;;;;;;;11.18;7.25;;;;;;;17.49;94.04;100275.94;4500612;31;20110;-63
2022/06/01 06:30:10;;;;;;;10.30;7.37;;;;;;;17.52;93.28;100278.44;4501336;31;20083;-63
2022/06/01 06:32:37;;;;;;;11.00;7.20;;;;;;;17.46;93.83;100286.72;4502934;31;20563;-63
2022/06/01 06:35:05;;;;;;;11.60;6.20;;;;;;;17.64;92.74;100285.94;4499635;31;20111;-63
2022/06/01 06:37:32;;;;;;;11.30;6.50;;;;;;;17.78;90.60;100288.03;4502395;31;20091;-63
2022/06/01 06:39:59;;;;;;;13.77;7.22;;;;;;;17.87;90.82;100290.28;4502617;31;20115;-63
2022/06/01 06:42:26;;;;;;;9.88;6.18;;;;;;;17.98;90.01;100287.13;4502276;31;20103;-63
2022/06/01 06:44:54;;;;;;;15.75;6.60;;;;;;;18.21;87.06;100290.59;4502183;31;20104;-63
2022/06/01 06:47:21;;;;;;;8.15;5.68;;;;;;;18.47;86.09;100298.28;4502123;31;20198;-63
2022/06/01 06:49:48;;;;;;;9.13;5.55;;;;;;;18.28;87.30;100297.41;4502023;31;20083;-63
2022/06/01 06:52:15;;;;;;;7.20;5.75;;;;;;;18.56;85.23;100302.34;4502277;31;20152;-63
2022/06/01 06:54:43;;;;;;;9.60;5.07;;;;;;;18.72;85.05;100302.50;4487815;31;20541;-63
2022/06/01 06:57:10;;;;;;;7.97;5.47;;;;;;;18.92;83.48;100302.44;4502154;31;20491;-63
2022/06/01 06:59:37;;;;;;;7.95;5.10;;;;;;;19.26;81.72;100295.50;4502108;31;20771;-63
2022/06/01 07:02:05;;;;;;;8.82;4.37;;;;;;;19.58;80.77;100301.91;4502137;31;20104;-63
2022/06/01 07:04:35;;;;;;;7.45;4.40;;;;;;;20.01;77.85;100307.75;4501836;31;20130;-63
2022/06/01 07:07:03;;;;;;;8.05;4.93;;;;;;;20.05;76.90;100310.16;4502434;31;20083;-63
2022/06/01 07:09:30;;;;;;;7.35;4.47;;;;;;;19.88;78.12;100310.19;4502620;31;20159;-63
2022/06/01 07:11:57;;;;;;;7.12;4.90;;;;;;;20.22;76.41;100319.13;4501585;31;20107;-64
2022/06/01 07:14:24;;;;;;;6.55;4.53;;;;;;;20.25;76.53;100325.19;4501714;31;20100;-63
2022/06/01 07:16:52;;;;;;;6.05;4.70;;;;;;;20.40;76.91;100326.16;4510350;31;20170;-63
2022/06/01 07:19:19;;;;;;;4.62;4.10;;;;;;;20.55;74.77;100334.34;4517756;31;20467;-63
2022/06/01 07:21:46;;;;;;;11.95;4.47;;;;;;;20.19;76.18;100336.19;4518056;31;20406;-63
2022/06/01 07:24:13;;;;;;;4.22;3.85;;;;;;;19.95;76.78;100335.66;4508055;31;20104;-63
2022/06/01 07:26:43;;;;;;;6.47;4.45;;;;;;;19.91;77.62;100334.09;4501382;31;20103;-63
2022/06/01 07:29:13;;;;;;;5.20;4.70;;;;;;;20.06;76.02;100338.63;4501630;31;20137;-63
2022/06/01 07:31:42;;;;;;;9.27;4.50;;;;;;;20.22;76.40;100332.50;4499044;31;20148;-64
2022/06/01 07:34:09;;;;;;;4.22;3.83;;;;;;;21.07;73.01;100332.34;4501667;31;20095;-64
2022/06/01 07:36:36;;;;;;;3.53;3.22;;;;;;;21.33;69.68;100328.19;4501887;31;20487;-63
2022/06/01 07:44:46;;;;;;;3.37;3.17;;;;;;;21.37;70.30;100321.72;4501896;31;20173;-63
2022/06/01 07:47:13;;;;;;;5.37;2.85;;;;;;;21.37;68.76;100318.19;4501395;31;20076;-63
2022/06/01 07:50:01;;;;;;;6.20;2.95;;;;;;;21.37;70.02;100321.72;4499158;31;20079;-63
2022/06/01 07:52:48;;;;;;;3.00;2.80;;;;;;;21.58;67.75;100322.28;4499684;31;20147;-63
2022/06/01 07:55:15;;;;;;;3.12;2.42;;;;;;;21.70;68.75;100328.78;4500479;31;20763;-63
2022/06/01 07:57:42;;;;;;;8.90;3.17;;;;;;;21.71;67.33;100328.66;4500309;31;20113;-63
2022/06/01 08:00:10;;;;;;;6.55;3.90;;;;;;;21.46;68.72;100331.06;4501171;31;20095;-63
2022/06/01 08:02:38;;;;;;;2.53;2.30;;;;;;;21.37;68.69;100329.75;4500513;31;20456;-63
2022/06/01 08:05:07;;;;;;;4.78;2.55;;;;;;;21.76;67.12;100331.06;4486014;31;20176;-63
2022/06/01 08:07:34;;;;;;;6.07;2.33;;;;;;;21.34;66.94;100335.28;4501566;31;20124;-63
2022/06/01 08:10:03;;;;;;;5.05;2.45;;;;;;;21.15;69.12;100334.59;4501177;31;20080;-63
2022/06/01 08:15:17;;;;;;;8.40;2.97;;;;;;;22.34;65.86;100332.09;4501645;31;20099;-63
2022/06/01 08:17:53;;;;;;;17.12;2.65;;;;;;;22.39;64.26;100338.91;4501480;31;20104;-63
2022/06/01 08:20:21;;;;;;;6.80;2.20;;;;;;;21.75;66.14;100334.72;4501133;31;20084;-63
2022/06/01 08:22:48;;;;;;;12.05;2.65;;;;;;;21.87;65.80;100336.69;4500985;31;20457;-63
2022/06/01 08:25:16;;;;;;;2.80;2.37;;;;;;;21.58;66.42;100330.34;4502434;31;20121;-63
2022/06/01 08:27:45;;;;;;;3.87;2.12;;;;;;;21.68;66.67;100346.75;4502063;31;20092;-63
2022/06/01 08:30:14;;;;;;;17.08;3.60;;;;;;;21.61;66.87;100348.06;4500934;31;20092;-63
2022/06/01 08:32:42;;;;;;;4.03;1.85;;;;;;;21.44;67.91;100352.56;4501192;31;20392;-64
2022/06/01 08:35:12;;;;;;;7.07;2.30;;;;;;;21.34;67.11;100355.87;4500787;31;20485;-63
2022/06/01 08:37:39;;;;;;;11.80;2.45;;;;;;;21.42;67.81;100359.00;4501520;31;20104;-63
2022/06/01 08:40:07;;;;;;;3.53;1.95;;;;;;;21.78;65.65;100356.00;4500984;31;20150;-63
2022/06/01 08:42:35;;;;;;;6.72;2.00;;;;;;;21.86;62.49;100358.22;4499441;31;20099;-63
2022/06/01 08:45:07;;;;;;;3.92;2.25;;;;;;;21.61;64.08;100367.69;4500619;31;20111;-63
2022/06/01 08:47:38;;;;;;;1.70;1.60;;;;;;;21.64;63.94;100369.34;4500525;31;20117;-63
2022/06/01 08:50:15;;;;;;;1.92;1.80;;;;;;;22.01;63.50;100362.66;4498944;31;20114;-63
2022/06/01 08:52:43;;;;;;;2.03;1.92;;;;;;;22.38;61.64;100358.66;4500379;31;20144;-63
2022/06/01 08:55:10;;;;;;;2.33;1.83;;;;;;;22.33;61.23;100358.09;4500135;31;20104;-63
2022/06/01 08:57:46;;;;;;;3.75;2.10;;;;;;;22.50;60.14;100362.41;4500532;31;20372;-63
2022/06/01 09:00:17;;;;;;;3.50;2.08;;;;;;;22.71;60.34;100356.66;4500083;31;20496;-64
2022/06/01 09:03:15;;;;;;;2.35;1.92;;;;;;;22.88;59.44;100362.69;4501072;31;20091;-63
2022/06/01 09:06:00;;;;;;;8.07;1.90;;;;;;;22.46;58.97;100368.94;4499624;31;20559;-63
2022/06/01 09:08:48;;;;;;;2.40;2.20;;;;;;;22.91;58.09;100369.72;4499127;31;20087;-63
2022/06/01 09:11:23;;;;;;;6.65;2.05;;;;;;;22.87;58.30;100366.34;4497487;31;20180;-63
2022/06/01 09:14:05;;;;;;;5.35;1.77;;;;;;;22.44;59.54;100362.81;4498322;31;20522;-63
2022/06/01 09:16:38;;;;;;;3.10;1.65;;;;;;;22.78;59.33;100366.91;4501279;31;20118;-63
2022/06/01 09:19:08;;;;;;;2.50;2.30;;;;;;;23.31;58.17;100359.09;4500986;31;20091;-63
2022/06/01 09:24:32;;;;;;;7.97;6.07;;;;;;;22.65;57.85;100377.59;4501206;31;20126;-63
2022/06/01 09:27:03;;;;;;;3.83;3.27;;;;;;;22.90;56.40;100379.59;4500458;31;20179;-63
2022/06/01 09:29:49;;;;;;;3.45;2.58;;;;;;;23.00;55.64;100385.25;4499276;31;20155;-63
2022/06/01 09:32:32;;;;;;;4.15;1.50;;;;;;;23.14;56.06;100379.91;4491869;31;20175;-63
2022/06/01 09:35:03;;;;;;;1.50;1.45;;;;;;;23.64;52.94;100377.56;4485015;31;20084;-63
2022/06/01 09:37:36;;;;;;;3.30;1.77;;;;;;;24.10;52.89;100369.09;4485261;31;20511;-63
2022/06/01 09:40:20;;;;;;;2.33;1.65;;;;;;;24.34;52.72;100378.16;4499574;31;20191;-64
2022/06/01 09:42:51;;;;;;;2.20;1.87;;;;;;;24.50;53.09;100366.37;4501524;31;20092;-65
2022/06/01 09:45:23;;;;;;;1.95;1.80;;;;;;;24.52;50.73;100381.47;4501175;31;20084;-65
2022/06/01 09:47:51;;;;;;;1.55;1.45;;;;;;;24.34;50.64;100382.69;4500781;31;20103;-65
2022/06/01 09:50:24;;;;;;;3.35;1.65;;;;;;;24.57;50.59;100381.12;4485160;31;20156;-65
2022/06/01 09:52:59;;;;;;;4.03;1.48;;;;;;;24.99;49.74;100384.44;4485272;31;20643;-65
2022/06/01 09:55:29;;;;;;;3.28;1.90;;;;;;;24.62;49.26;100383.47;4486624;31;20088;-65
2022/06/01 09:58:05;;;;;;;4.93;2.05;;;;;;;24.36;50.25;100379.91;4487385;31;20112;-65
2022/06/01 10:06:21;;;;;;;1.90;1.80;;;;;;;24.99;48.44;100381.75;4487455;31;20084;-65
2022/06/01 10:09:11;;;;;;;1.75;1.62;;;;;;;24.78;49.89;100382.31;4487608;31;20079;-65
2022/06/01 10:11:42;;;;;;;2.40;1.75;;;;;;;24.79;48.57;100375.94;4473101;31;20088;-65
2022/06/01 10:14:23;;;;;;;1.90;1.80;;;;;;;24.32;49.77;100385.50;4487282;31;20113;-65
2022/06/01 10:17:19;;;;;;;3.60;1.92;;;;;;;24.53;49.41;100374.22;4486981;31;20087;-65
2022/06/01 10:20:17;;;;;;;4.95;1.60;;;;;;;24.89;48.39;100377.97;4487355;31;20115;-65
2022/06/01 10:23:13;;;;;;;3.53;1.48;;;;;;;25.54;45.99;100380.41;4487274;31;20092;-65
2022/06/01 10:25:52;;;;;;;3.75;1.83;;;;;;;25.98;44.94;100387.91;4487223;31;20088;-65
2022/06/01 10:28:26;;;;;;;5.18;1.52;;;;;;;25.69;45.80;100392.78;4487176;31;20088;-65
2022/06/01 10:31:38;;;;;;;7.60;1.60;;;;;;;26.14;44.75;100390.28;4487180;31;20144;-65
2022/06/01 10:34:15;;;;;;;8.73;2.47;;;;;;;25.91;45.27;100388.50;4478718;31;20099;-65
2022/06/01 10:36:55;;;;;;;2.12;1.60;;;;;;;26.10;44.26;100383.37;4491067;31;20381;-65
2022/06/01 10:39:25;;;;;;;1.40;1.30;;;;;;;26.74;43.81;100379.37;4500786;31;20092;-65
2022/06/01 10:42:07;;;;;;;5.05;1.77;;;;;;;27.00;42.88;100380.88;4503323;31;20121;-65
2022/06/01 10:44:43;;;;;;;1.58;1.48;;;;;;;26.51;44.83;100384.75;4502560;31;20359;-65
2022/06/01 10:47:25;;;;;;;2.90;1.30;;;;;;;27.21;42.52;100377.41;4502773;31;20114;-65
2022/06/01 10:50:07;;;;;;;5.62;1.20;;;;;;;27.06;39.22;100383.03;4503168;31;20400;-65
2022/06/01 10:52:46;;;;;;;9.52;1.77;;;;;;;27.22;40.58;100374.59;4502480;31;20125;-65
2022/06/01 10:55:31;;;;;;;2.12;1.73;;;;;;;27.05;41.33;100373.22;4502633;31;20162;-65
2022/06/01 10:58:00;;;;;;;1.50;1.33;;;;;;;26.78;42.75;100376.28;4502610;31;20530;-64
2022/06/01 11:00:41;;;;;;;1.20;1.20;;;;;;;26.86;42.35;100373.84;4500418;31;20106;-65
2022/06/01 11:03:35;;;;;;;1.75;1.20;;;;;;;26.92;40.78;100372.47;4499142;31;20159;-65
2022/06/01 11:06:39;;;;;;;1.58;1.20;;;;;;;27.38;39.95;100375.03;4500114;31;20145;-64
2022/06/01 11:09:07;;;;;;;2.53;1.08;;;;;;;27.83;39.14;100379.50;4498958;31;20133;-64
2022/06/01 11:11:50;;;;;;;1.37;1.27;;;;;;;27.64;39.43;100375.59;4502180;31;20174;-64
2022/06/01 11:14:51;;;;;;;3.28;1.30;;;;;;;27.86;39.01;100371.12;4500373;31;20176;-65
2022/06/01 11:17:39;;;;;;;4.43;1.10;;;;;;;28.73;37.04;100369.03;4499832;31;20087;-65
2022/06/01 11:20:25;;;;;;;5.28;1.02;;;;;;;28.75;36.37;100375.16;4500271;31;20107;-64
2022/06/01 11:23:15;;;;;;;6.65;1.30;;;;;;;29.26;35.49;100382.41;4496599;31;20118;-65
2022/06/01 11:26:08;;;;;;;;;;;;;;;28.77;35.89;100385.87;4501049;31;20129;-64
2022/06/01 11:28:41;;;;;;;3.20;1.15;;;;;;;29.01;35.84;100372.91;4499242;31;19984;-65
2022/06/01 11:31:09;;;;;;;2.28;1.10;;;;;;;29.42;34.46;100373.69;4500221;31;20117;-65
2022/06/01 11:33:44;;;;;;;2.40;1.30;;;;;;;30.11;34.59;100363.78;4500731;31;20103;-65
2022/06/01 11:36:38;;;;;;;1.08;1.08;;;;;;;31.78;30.62;100361.94;4501039;31;20084;-65
2022/06/01 11:39:14;;;;;;;1.70;0.95;;;;;;;32.27;29.99;100367.84;4493769;31;20087;-65
2022/06/01 11:41:52;;;;;;;1.45;1.15;;;;;;;31.46;31.08;100367.06;4502363;31;20144;-64
2022/06/01 11:44:27;;;;;;;1.52;1.30;;;;;;;32.26;30.09;100368.00;4502672;31;20087;-65
2022/06/01 11:47:23;;;;;;;3.67;1.10;;;;;;;32.78;28.84;100363.41;4502595;31;20789;-65
2022/06/01 11:50:06;;;;;;;3.42;1.10;;;;;;;33.68;29.05;100365.69;4502345;31;20138;-65
2022/06/01 11:52:43;;;;;;;2.33;0.90;;;;;;;34.48;27.14;100358.50;4502756;31;20079;-65
2022/06/01 11:55:14;;;;;;;1.00;0.90;;;;;;;32.98;28.06;100353.16;4501874;31;20088;-65
2022/06/01 11:57:49;;;;;;;1.77;0.88;;;;;;;33.46;29.49;100353.47;4501914;31;20120;-65
2022/06/01 12:00:35;;;;;;;1.23;0.93;;;;;;;34.67;26.92;100350.97;4502227;31;20118;-65
2022/06/01 12:03:36;;;;;;;0.90;0.90;;;;;;;35.32;26.40;100349.88;4502346;31;20079;-65
2022/06/01 12:06:14;;;;;;;0.80;0.80;;;;;;;35.70;25.11;100355.50;4489545;31;20084;-65
2022/06/01 12:09:00;;;;;;;0.95;0.95;;;;;;;35.38;25.78;100355.47;4486603;31;20163;-65